Details From OBBI - BAHRAIN INTL
To OEPA - QAISUMAH
Flight Number -
Tags generated
Created
Modified
Stats Distance 272 nm / 504 km
Max Altitude 0 ft / 0 m
Waypoints 5
Social Downloads 1
Likes 0
Share VATSIM

Download

Looking for another format? Having issues loading an existing format? Contact us
Advertisement - Login to hide

Notes

None

Route

OBBI BOROP R219 KEDAT V45 EMENI OEPA

ID Type Via Altitude Latitude Longitude Leg Dist Tot Dist Heading (true) Name
O OBBI APT - 0 ft / 0 m 26.26784˚ 50.63710˚ - 0 nm - BAHRAIN INTL
BOROP FIX - 0 ft / 0 m 26.88806˚ 48.86750˚ 102 nm 102 nm 292° / 291° -
KEDAT FIX R219 (AWY-HI) 0 ft / 0 m 27.36361˚ 47.98361˚ 55 nm 157 nm 301° / 301° -
EMENI FIX V45 (AWY-HI) 0 ft / 0 m 27.54222˚ 47.64694˚ 20 nm 178 nm 301° / 301° -
O OEPA APT - 0 ft / 0 m 28.33523˚ 46.12494˚ 93 nm 271 nm 301° / 300° QAISUMAH

Altitude Profile

Advertisement - Login to hide

Weather


0- 5 10 15 20 25 30 35+ Temperature / ° C

Clouds and Precipitation
Forecast for 2017-12-17 18:00 UTC. Updated an hour ago

Ground ~20,000 ft ~40,000 ft Winds

OBBI

Details ICAO OBBI (BAH)
Name BAHRAIN INTL
Region Bahrain
Timezone Asia/Bahrain (UTC+3.0)
Stats Elevation 6 ft / 2 m (AMSL)
Location 26.267837° 50.637095°
Runways 2
Magnetic Variation 2.762° E

METAR

OBBI 171400Z 32006KT 9999 FEW030 20/17 Q1019 NOSIG

Decode

TAF

TAF OBBI 171100Z 1712/1818 34013KT 7000 FEW040 PROB30 TEMPO 1718/1803 5000 -SHRA SCT040 BKN100

Decode

Departure Runways

ID Width Length Bearing (true) Bearing (mag) Surface Threshold Offset Overrun Length
12L 197 ft / 60 m 12,893 ft / 3,930 m 122.74° 119.98° Asphalt 1,000 ft / 305 m 0 ft / 0 m
12R 148 ft / 45 m 8,303 ft / 2,531 m 122.76° 120.00° Asphalt 1,000 ft / 305 m 0 ft / 0 m
30L 148 ft / 45 m 8,303 ft / 2,531 m 302.77° 300.01° Asphalt 395 ft / 120 m 0 ft / 0 m
30R 197 ft / 60 m 12,893 ft / 3,930 m 302.75° 299.99° Asphalt 1,000 ft / 305 m 0 ft / 0 m

OEPA

Details ICAO OEPA (AQI)
Name QAISUMAH
Region Saudi Arabia
Timezone Asia/Riyadh (UTC+3.0)
Stats Elevation 1,174 ft / 358 m (AMSL)
Location 28.335234° 46.124936°
Runways 1
Magnetic Variation 3.615° E

METAR

OEPA 171400Z 04005KT CAVOK 19/05 Q1023 NOSIG

Decode

TAF

Not found

Destination Runways

ID Width Length Bearing (true) Bearing (mag) Surface Threshold Offset Overrun Length
16 148 ft / 45 m 9,858 ft / 3,005 m 158.31° 154.70° Asphalt 0 ft / 0 m 197 ft / 60 m
34 148 ft / 45 m 9,858 ft / 3,005 m 338.31° 334.70° Asphalt 0 ft / 0 m 197 ft / 60 m